Baytik Shan, China
Current Conditions -  °F | °C
As of 10:00 AM on Thursday 23 Oct 2014 (Local Time) from ZWWW Reporting Station
Clear Clear  
Wind Chill: 52°   Ceiling: Unl
Heat Index: 52°   Visibility: 4mi
Dew Point: 39°   Wind: 2mph
Humidity: 62%   Direction: 40°NE
Pressure: 30"   Gusts: NA
Location:  45.37°N, 90.53°E
Report Text: ZWWW 230200Z 04001MPS 6000 NSC 11/04 Q1016 NOSIG
Loading
Personal Weather Stations






























Interactive Weather Map
Tropical Storm Tracking
New forecast layout! Learn more

10-Day Weather Forecast

Advertisements
Track Severe Weather on mobile